Time,TemperatureF,DewpointF,PressureIn,WindDirection,WindDirectionDegrees,WindSpeedMPH,WindSpeedGustMPH,Humidity,HourlyPrecipIn,Conditions,Clouds,dailyrainin,SoftwareType,DateUTC
2013-01-31 00:20:00,28.0,15.6,28.61,West,275,0.0,0.0,59,0.00,,,0.00,Weather View 32 v70,2013-01-31 05:20:00,
2013-01-31 00:26:00,28.0,15.6,28.61,West,275,0.0,0.0,59,0.00,,,0.00,Weather View 32 v70,2013-01-31 05:26:00,
2013-01-31 00:40:00,27.5,15.0,28.64,West,275,0.0,0.0,59,0.00,,,0.00,Weather View 32 v70,2013-01-31 05:40:00,
2013-01-31 01:00:00,26.8,13.6,28.64,West,275,0.0,0.0,57,0.00,,,0.00,Weather View 32 v70,2013-01-31 06:00:00,
2013-01-31 01:20:00,26.2,12.7,28.67,West,275,0.0,0.0,56,0.00,,,0.00,Weather View 32 v70,2013-01-31 06:20:00,
2013-01-31 01:26:00,26.2,12.7,28.67,West,275,0.0,0.0,56,0.00,,,0.00,Weather View 32 v70,2013-01-31 06:26:00,
2013-01-31 01:40:00,25.3,12.6,28.67,West,275,0.0,0.0,58,0.00,,,0.00,Weather View 32 v70,2013-01-31 06:40:00,
2013-01-31 02:00:00,25.0,11.1,28.70,West,275,0.0,0.0,55,0.00,,,0.00,Weather View 32 v70,2013-01-31 07:00:00,
2013-01-31 02:20:00,24.6,9.9,28.70,West,275,0.0,0.0,53,0.00,,,0.00,Weather View 32 v70,2013-01-31 07:20:00,
2013-01-31 02:27:00,24.6,9.9,28.70,West,275,0.0,0.0,53,0.00,,,0.00,Weather View 32 v70,2013-01-31 07:27:00,
2013-01-31 02:40:00,24.4,8.5,28.73,West,275,0.0,0.0,50,0.00,,,0.00,Weather View 32 v70,2013-01-31 07:40:00,
2013-01-31 03:00:00,24.4,11.0,28.73,West,275,0.0,0.0,56,0.00,,,0.00,Weather View 32 v70,2013-01-31 08:00:00,
2013-01-31 03:20:00,23.7,8.2,28.76,West,275,0.0,0.0,51,0.00,,,0.00,Weather View 32 v70,2013-01-31 08:20:00,
2013-01-31 03:28:00,23.7,8.2,28.76,West,275,0.0,0.0,51,0.00,,,0.00,Weather View 32 v70,2013-01-31 08:28:00,
2013-01-31 03:40:00,23.5,8.1,28.76,West,275,0.0,0.0,51,0.00,,,0.00,Weather View 32 v70,2013-01-31 08:40:00,
2013-01-31 04:00:00,23.0,7.1,28.76,West,275,0.0,0.0,50,0.00,,,0.00,Weather View 32 v70,2013-01-31 09:00:00,
2013-01-31 04:20:00,22.6,7.7,28.79,West,275,0.0,0.0,52,0.00,,,0.00,Weather View 32 v70,2013-01-31 09:20:00,
2013-01-31 04:29:00,22.6,7.7,28.79,West,275,0.0,0.0,52,0.00,,,0.00,Weather View 32 v70,2013-01-31 09:29:00,
2013-01-31 04:40:00,22.5,7.1,28.79,West,275,0.0,0.0,51,0.00,,,0.00,Weather View 32 v70,2013-01-31 09:40:00,
2013-01-31 05:00:00,22.1,7.2,28.79,West,275,0.0,0.0,52,0.00,,,0.00,Weather View 32 v70,2013-01-31 10:00:00,
2013-01-31 05:20:00,21.9,6.1,28.82,West,275,0.0,0.0,50,0.00,,,0.00,Weather View 32 v70,2013-01-31 10:20:00,
2013-01-31 05:40:00,21.9,6.1,28.82,West,275,0.0,0.0,50,0.00,,,0.00,Weather View 32 v70,2013-01-31 10:40:00,
2013-01-31 06:00:00,21.9,8.2,28.85,West,275,0.0,0.0,55,0.00,,,0.00,Weather View 32 v70,2013-01-31 11:00:00,
2013-01-31 06:20:00,21.4,10.7,28.82,West,275,0.0,0.0,63,0.00,,,0.00,Weather View 32 v70,2013-01-31 11:20:00,
2013-01-31 06:40:00,20.7,13.1,28.85,West,275,0.0,0.0,72,0.00,,,0.00,Weather View 32 v70,2013-01-31 11:40:00,
2013-01-31 07:00:00,20.3,13.6,28.82,West,275,0.0,0.0,75,0.00,,,0.00,Weather View 32 v70,2013-01-31 12:00:00,
2013-01-31 07:20:00,20.7,6.6,28.85,West,275,0.0,0.0,54,0.00,,,0.00,Weather View 32 v70,2013-01-31 12:20:00,
2013-01-31 07:40:00,20.5,5.6,28.85,West,275,0.0,0.0,52,0.00,,,0.00,Weather View 32 v70,2013-01-31 12:40:00,
2013-01-31 08:00:00,20.5,6.9,28.88,West,276,0.0,0.0,55,0.00,,,0.00,Weather View 32 v70,2013-01-31 13:00:00,
2013-01-31 08:20:00,20.1,9.5,28.88,West,275,0.0,0.0,63,0.00,,,0.00,Weather View 32 v70,2013-01-31 13:20:00,
2013-01-31 08:40:00,19.9,12.1,28.91,West,275,0.0,0.0,71,0.00,,,0.00,Weather View 32 v70,2013-01-31 13:40:00,
2013-01-31 09:00:00,20.3,13.3,28.91,West,275,0.0,0.0,74,0.00,,,0.00,Weather View 32 v70,2013-01-31 14:00:00,
2013-01-31 09:20:00,20.8,10.9,28.94,West,275,0.0,0.0,65,0.00,,,0.00,Weather View 32 v70,2013-01-31 14:20:00,
2013-01-31 09:40:00,21.0,9.7,28.94,West,276,0.0,0.0,61,0.00,,,0.00,Weather View 32 v70,2013-01-31 14:40:00,
2013-01-31 10:00:00,21.0,7.0,28.94,West,275,0.0,0.0,54,0.00,,,0.00,Weather View 32 v70,2013-01-31 15:00:00,
2013-01-31 10:20:00,21.6,7.5,28.97,West,275,0.0,0.0,54,0.00,,,0.00,Weather View 32 v70,2013-01-31 15:20:00,
2013-01-31 10:40:00,21.9,8.2,28.97,West,275,0.0,0.0,55,0.00,,,0.00,Weather View 32 v70,2013-01-31 15:40:00,
2013-01-31 11:00:00,21.2,9.1,28.97,West,275,0.0,0.0,59,0.00,,,0.00,Weather View 32 v70,2013-01-31 16:00:00,
2013-01-31 11:20:00,20.3,10.8,29.00,West,275,0.0,0.0,66,0.00,,,0.00,Weather View 32 v70,2013-01-31 16:20:00,
2013-01-31 11:40:00,20.7,12.4,29.00,West,275,0.0,0.0,70,0.00,,,0.00,Weather View 32 v70,2013-01-31 16:40:00,
2013-01-31 12:00:00,20.5,11.6,29.00,West,275,0.0,0.0,68,0.00,,,0.00,Weather View 32 v70,2013-01-31 17:00:00,
2013-01-31 12:20:00,21.0,14.0,29.00,West,275,0.0,0.0,74,0.00,,,0.00,Weather View 32 v70,2013-01-31 17:20:00,
2013-01-31 12:40:00,20.5,12.6,29.00,West,275,0.0,0.0,71,0.00,,,0.00,Weather View 32 v70,2013-01-31 17:40:00,
2013-01-31 13:00:00,20.5,8.4,29.00,West,275,0.0,0.0,59,0.00,,,0.00,Weather View 32 v70,2013-01-31 18:00:00,
2013-01-31 13:20:00,21.9,6.6,29.00,West,275,0.0,0.0,51,0.00,,,0.00,Weather View 32 v70,2013-01-31 18:20:00,
2013-01-31 13:40:00,20.7,9.0,29.00,West,275,0.0,0.0,60,0.00,,,0.00,Weather View 32 v70,2013-01-31 18:40:00,
2013-01-31 14:00:00,20.5,8.4,29.03,West,275,0.0,0.0,59,0.00,,,0.00,Weather View 32 v70,2013-01-31 19:00:00,
2013-01-31 14:20:00,20.5,6.5,29.03,West,275,0.0,0.0,54,0.00,,,0.00,Weather View 32 v70,2013-01-31 19:20:00,
2013-01-31 14:40:00,21.4,5.2,29.03,West,275,0.0,0.0,49,0.00,,,0.00,Weather View 32 v70,2013-01-31 19:40:00,
2013-01-31 15:00:00,21.2,2.7,29.03,West,275,0.0,0.0,44,0.00,,,0.00,Weather View 32 v70,2013-01-31 20:00:00,
2013-01-31 15:20:00,21.4,2.3,29.03,West,275,0.0,0.0,43,0.00,,,0.00,Weather View 32 v70,2013-01-31 20:20:00,
2013-01-31 15:40:00,21.0,3.5,29.06,West,275,0.0,0.0,46,0.00,,,0.00,Weather View 32 v70,2013-01-31 20:40:00,
2013-01-31 16:00:00,19.8,2.8,29.06,West,275,0.0,0.0,47,0.00,,,0.00,Weather View 32 v70,2013-01-31 21:00:00,
2013-01-31 16:20:00,18.9,4.1,29.06,West,275,0.0,0.0,52,0.00,,,0.00,Weather View 32 v70,2013-01-31 21:20:00,
2013-01-31 16:40:00,19.6,6.0,29.06,West,275,0.0,0.0,55,0.00,,,0.00,Weather View 32 v70,2013-01-31 21:40:00,
2013-01-31 17:00:00,19.0,5.5,29.09,West,275,0.0,0.0,55,0.00,,,0.00,Weather View 32 v70,2013-01-31 22:00:00,
2013-01-31 17:20:00,18.7,6.0,29.09,West,275,0.0,0.0,57,0.00,,,0.00,Weather View 32 v70,2013-01-31 22:20:00,
2013-01-31 17:40:00,17.8,7.3,29.09,West,275,0.0,0.0,63,0.00,,,0.00,Weather View 32 v70,2013-01-31 22:40:00,
2013-01-31 18:00:00,16.5,6.5,29.09,West,275,0.0,0.0,64,0.00,,,0.00,Weather View 32 v70,2013-01-31 23:00:00,
2013-01-31 18:20:00,16.3,5.2,29.09,West,275,0.0,0.0,61,0.00,,,0.00,Weather View 32 v70,2013-01-31 23:20:00,
2013-01-31 18:40:00,16.5,5.4,29.09,West,275,0.0,0.0,61,0.00,,,0.00,Weather View 32 v70,2013-01-31 23:40:00,
2013-01-31 19:00:00,16.0,4.2,29.09,West,275,0.0,0.0,59,0.00,,,0.00,Weather View 32 v70,2013-02-01 00:00:00,
2013-01-31 19:20:00,16.0,5.6,29.12,West,275,0.0,0.0,63,0.00,,,0.00,Weather View 32 v70,2013-02-01 00:20:00,
2013-01-31 19:40:00,16.0,6.3,29.12,West,275,0.0,0.0,65,0.00,,,0.00,Weather View 32 v70,2013-02-01 00:40:00,
2013-01-31 20:00:00,15.6,4.2,29.12,West,275,0.0,0.0,60,0.00,,,0.00,Weather View 32 v70,2013-02-01 01:00:00,
2013-01-31 20:20:00,15.6,4.6,29.15,West,275,0.0,0.0,61,0.00,,,0.00,Weather View 32 v70,2013-02-01 01:20:00,
2013-01-31 20:40:00,15.3,4.6,29.15,West,275,0.0,0.0,62,0.00,,,0.00,Weather View 32 v70,2013-02-01 01:40:00,
2013-01-31 21:00:00,15.3,4.6,29.15,West,275,0.0,0.0,62,0.00,,,0.00,Weather View 32 v70,2013-02-01 02:00:00,
2013-01-31 21:20:00,15.3,4.6,29.15,West,275,0.0,0.0,62,0.00,,,0.00,Weather View 32 v70,2013-02-01 02:20:00,
2013-01-31 21:40:00,15.1,4.8,29.15,West,275,0.0,0.0,63,0.00,,,0.00,Weather View 32 v70,2013-02-01 02:40:00,
2013-01-31 22:00:00,15.1,4.4,29.18,West,275,0.0,0.0,62,0.00,,,0.00,Weather View 32 v70,2013-02-01 03:00:00,
2013-01-31 22:20:00,14.9,5.3,29.18,West,275,0.0,0.0,65,0.00,,,0.00,Weather View 32 v70,2013-02-01 03:20:00,
2013-01-31 22:40:00,14.9,5.6,29.18,West,276,0.0,0.0,66,0.00,,,0.00,Weather View 32 v70,2013-02-01 03:40:00,
2013-01-31 22:45:00,14.9,5.6,29.18,West,276,0.0,0.0,66,0.00,,,0.00,Weather View 32 v70,2013-02-01 03:45:00,
2013-01-31 23:00:00,14.5,5.3,29.18,West,275,0.0,0.0,66,0.00,,,0.00,Weather View 32 v70,2013-02-01 04:00:00,
2013-01-31 23:20:00,14.5,4.9,29.18,West,275,0.0,0.0,65,0.00,,,0.00,Weather View 32 v70,2013-02-01 04:20:00,
2013-01-31 23:40:00,14.4,5.1,29.18,West,275,0.0,0.0,66,0.00,,,0.00,Weather View 32 v70,2013-02-01 04:40:00,
2013-01-31 23:46:00,14.4,5.1,29.18,West,275,0.0,0.0,66,0.00,,,0.00,Weather View 32 v70,2013-02-01 04:46:00,